createdAt,value
2022-12-18T00:03:39.577Z,87.13
2022-12-18T00:08:45.313Z,87.11
2022-12-18T00:13:48.715Z,86.85
2022-12-18T00:18:53.449Z,86.58
2022-12-18T00:23:55.205Z,87.06
2022-12-18T00:29:03.519Z,87.59
2022-12-18T00:34:07.583Z,87.33
2022-12-18T00:39:09.523Z,87.40
2022-12-18T00:44:13.735Z,86.73
2022-12-18T00:49:17.987Z,85.92
2022-12-18T00:54:19.639Z,85.68
2022-12-18T00:59:21.336Z,86.90
2022-12-18T01:04:22.988Z,86.73
2022-12-18T01:09:24.629Z,87.19
2022-12-18T01:14:27.410Z,86.53
2022-12-18T01:19:29.647Z,86.67
2022-12-18T01:24:31.307Z,86.74
2022-12-18T01:29:33.042Z,86.59
2022-12-18T01:34:36.749Z,86.60
2022-12-18T01:39:39.192Z,86.81
2022-12-18T01:45:00.919Z,86.45
2022-12-18T01:50:13.258Z,87.00
2022-12-18T01:55:18.063Z,86.43
2022-12-18T02:00:22.165Z,86.86
2022-12-18T02:05:40.103Z,86.83
2022-12-18T02:11:08.536Z,87.39
2022-12-18T02:16:31.344Z,86.88
2022-12-18T02:21:48.276Z,86.60
2022-12-18T02:26:54.300Z,87.00
2022-12-18T02:31:59.870Z,86.79
2022-12-18T02:37:03.560Z,87.54
2022-12-18T02:42:09.146Z,87.30
2022-12-18T02:47:13.693Z,87.61
2022-12-18T02:52:53.111Z,87.15
2022-12-18T02:57:59.990Z,87.27
2022-12-18T03:03:34.375Z,87.10
2022-12-18T03:08:40.554Z,86.08
2022-12-18T03:13:57.103Z,86.13
2022-12-18T03:19:15.781Z,85.25
2022-12-18T03:24:18.569Z,85.52
2022-12-18T03:29:29.051Z,84.89
2022-12-18T03:34:35.255Z,85.10
2022-12-18T03:39:39.004Z,84.23
2022-12-18T03:44:58.866Z,84.33
2022-12-18T03:50:20.439Z,83.95
2022-12-18T03:55:26.064Z,84.24
2022-12-18T04:00:34.159Z,84.63
2022-12-18T04:05:42.184Z,84.58
2022-12-18T04:10:44.502Z,84.14
2022-12-18T04:15:47.410Z,85.08
2022-12-18T04:20:51.184Z,85.68
2022-12-18T04:25:53.490Z,85.36
2022-12-18T04:31:08.575Z,86.02
2022-12-18T04:36:10.811Z,85.74
2022-12-18T04:41:13.021Z,85.79
2022-12-18T04:46:16.029Z,86.15
2022-12-18T04:51:20.867Z,86.43
2022-12-18T04:56:26.353Z,86.13
2022-12-18T05:01:34.088Z,86.64
2022-12-18T05:06:36.188Z,86.01
2022-12-18T05:11:38.010Z,85.60
2022-12-18T05:16:39.718Z,85.12
2022-12-18T05:21:41.460Z,85.05
2022-12-18T05:26:43.183Z,84.95
2022-12-18T05:31:44.896Z,85.67
2022-12-18T05:36:46.621Z,85.11
2022-12-18T05:41:48.293Z,85.11
2022-12-18T05:46:50.011Z,85.29
2022-12-18T05:51:51.758Z,85.82
2022-12-18T05:56:53.412Z,85.86
2022-12-18T06:01:55.236Z,85.43
2022-12-18T06:06:56.944Z,85.60
2022-12-18T06:11:58.566Z,85.30
2022-12-18T06:17:00.175Z,86.35
2022-12-18T06:22:01.822Z,86.31
2022-12-18T06:27:03.479Z,86.33
2022-12-18T06:32:05.404Z,86.22
2022-12-18T06:37:07.090Z,87.18
2022-12-18T06:42:08.725Z,86.53
2022-12-18T06:47:10.492Z,87.08
2022-12-18T06:52:12.138Z,86.37
2022-12-18T06:57:13.919Z,85.96
2022-12-18T07:02:15.696Z,86.08
2022-12-18T07:07:17.447Z,84.89
2022-12-18T07:12:19.131Z,85.21
2022-12-18T07:17:20.748Z,85.42
2022-12-18T07:22:22.889Z,85.11
2022-12-18T07:27:24.533Z,84.86
2022-12-18T07:32:26.202Z,84.43
2022-12-18T07:37:27.807Z,84.15
2022-12-18T07:42:32.004Z,84.11
2022-12-18T07:47:36.088Z,84.64
2022-12-18T07:52:37.731Z,84.64
2022-12-18T07:57:50.713Z,84.22
2022-12-18T08:02:54.339Z,84.49
2022-12-18T08:07:57.169Z,83.95
2022-12-18T08:13:04.465Z,83.97
2022-12-18T08:18:10.085Z,83.54
2022-12-18T08:23:14.488Z,83.96
2022-12-18T08:28:17.870Z,84.68
2022-12-18T08:33:19.531Z,84.51
2022-12-18T08:38:21.156Z,84.22
2022-12-18T08:43:41.516Z,83.82
2022-12-18T08:48:43.485Z,84.95
2022-12-18T08:53:45.662Z,85.27
2022-12-18T08:58:47.609Z,85.01
2022-12-18T09:03:50.301Z,85.60
2022-12-18T09:08:52.002Z,85.83
2022-12-18T09:13:54.900Z,85.91
2022-12-18T09:19:00.489Z,85.38
2022-12-18T09:24:02.274Z,85.19
2022-12-18T09:29:04.663Z,85.24
2022-12-18T09:34:06.266Z,85.47
2022-12-18T09:39:08.993Z,86.05
2022-12-18T09:44:13.887Z,87.30
2022-12-18T09:49:17.826Z,86.97
2022-12-18T09:54:26.942Z,87.34
2022-12-18T09:59:40.146Z,86.21
2022-12-18T10:04:43.032Z,85.78
2022-12-18T10:09:51.145Z,85.19
2022-12-18T10:14:55.416Z,84.23
2022-12-18T10:20:03.941Z,84.50
2022-12-18T10:25:27.428Z,83.32
2022-12-18T10:30:29.174Z,82.23
2022-12-18T10:35:30.714Z,81.88
2022-12-18T10:40:33.324Z,81.09
2022-12-18T10:45:35.065Z,80.76
2022-12-18T10:51:09.657Z,81.02
2022-12-18T10:56:00.545Z,80.68
2022-12-18T11:01:05.884Z,79.66
2022-12-18T11:06:16.345Z,79.62
2022-12-18T11:11:22.892Z,79.50
2022-12-18T11:16:24.950Z,78.72
2022-12-18T11:21:26.625Z,78.72
2022-12-18T11:26:35.593Z,78.19
2022-12-18T11:31:37.437Z,78.04
2022-12-18T11:36:43.486Z,78.34
2022-12-18T11:42:13.074Z,77.79
2022-12-18T11:47:42.566Z,77.30
2022-12-18T11:52:44.317Z,78.20
2022-12-18T11:58:04.449Z,77.25
2022-12-18T12:03:24.859Z,77.12
2022-12-18T12:08:55.087Z,76.52
2022-12-18T12:14:16.597Z,76.82
2022-12-18T12:19:28.236Z,76.67
2022-12-18T12:24:48.444Z,76.71
2022-12-18T12:29:49.918Z,76.60
2022-12-18T12:35:00.988Z,76.65
2022-12-18T12:40:26.738Z,76.62
2022-12-18T12:45:40.712Z,76.67
2022-12-18T12:50:43.049Z,77.22
2022-12-18T12:55:45.164Z,77.05
2022-12-18T13:00:54.507Z,77.14
2022-12-18T13:06:00.563Z,76.57
2022-12-18T13:11:24.843Z,76.51
2022-12-18T13:16:28.564Z,77.23
2022-12-18T13:21:32.295Z,76.98
2022-12-18T13:26:35.253Z,77.72
2022-12-18T13:31:40.064Z,77.88
2022-12-18T13:36:41.784Z,78.36
2022-12-18T13:41:43.654Z,78.21
2022-12-18T13:46:47.683Z,78.63
2022-12-18T13:51:52.398Z,79.31
2022-12-18T13:56:54.414Z,79.11
2022-12-18T14:01:59.008Z,79.85
2022-12-18T14:07:09.524Z,79.73
2022-12-18T14:12:47.266Z,79.95
2022-12-18T14:17:51.655Z,80.45
2022-12-18T14:22:53.637Z,80.59
2022-12-18T14:28:11.276Z,81.05
2022-12-18T14:33:15.734Z,81.41
2022-12-18T14:38:17.411Z,81.85
2022-12-18T14:43:18.948Z,81.97
2022-12-18T14:48:23.695Z,82.34
2022-12-18T14:54:10.104Z,82.66
2022-12-18T14:59:22.203Z,82.68
2022-12-18T15:04:27.298Z,83.22
2022-12-18T15:09:29.089Z,83.18
2022-12-18T15:14:36.992Z,83.68
2022-12-18T15:19:42.464Z,83.99
2022-12-18T15:24:44.173Z,83.45
2022-12-18T15:29:45.740Z,83.90
2022-12-18T15:34:47.442Z,84.28
2022-12-18T15:39:49.000Z,84.23
2022-12-18T15:44:50.701Z,84.26
2022-12-18T15:49:52.304Z,83.75
2022-12-18T15:55:12.613Z,84.19
2022-12-18T16:00:14.697Z,84.17
2022-12-18T16:05:18.067Z,84.30
2022-12-18T16:10:20.030Z,84.21
2022-12-18T16:15:24.722Z,84.35
2022-12-18T16:20:26.769Z,84.15
2022-12-18T16:25:29.093Z,84.14
2022-12-18T16:30:38.172Z,84.70
2022-12-18T16:35:40.578Z,84.45
2022-12-18T16:41:02.081Z,84.65
2022-12-18T16:46:03.903Z,84.39
2022-12-18T16:51:05.753Z,84.39
2022-12-18T16:56:07.528Z,84.21
2022-12-18T17:01:11.296Z,83.96
2022-12-18T17:06:13.027Z,84.25
2022-12-18T17:11:14.770Z,84.34
2022-12-18T17:16:17.633Z,84.18
2022-12-18T17:21:19.876Z,84.66
2022-12-18T17:26:21.614Z,84.27
2022-12-18T17:31:24.144Z,84.07
2022-12-18T17:36:29.007Z,84.43
2022-12-18T17:41:31.638Z,84.53
2022-12-18T17:46:34.340Z,84.46
2022-12-18T17:51:36.104Z,84.29
2022-12-18T17:56:38.055Z,84.29
2022-12-18T18:01:44.500Z,84.52
2022-12-18T18:06:46.895Z,84.70
2022-12-18T18:12:07.139Z,84.18
2022-12-18T18:17:09.018Z,83.89
2022-12-18T18:22:11.214Z,84.01
2022-12-18T18:27:13.142Z,83.76
2022-12-18T18:32:16.913Z,83.39
2022-12-18T18:37:18.938Z,83.21
2022-12-18T18:42:20.607Z,83.55
2022-12-18T18:47:22.242Z,82.85
2022-12-18T18:52:23.955Z,83.03
2022-12-18T18:57:30.131Z,82.97
2022-12-18T19:02:32.434Z,82.89
2022-12-18T19:07:34.203Z,82.97
2022-12-18T19:12:54.555Z,82.14
2022-12-18T19:17:56.694Z,81.85
2022-12-18T19:22:59.295Z,81.76
2022-12-18T19:28:01.009Z,82.12
2022-12-18T19:33:19.922Z,81.97
2022-12-18T19:38:24.669Z,81.48
2022-12-18T19:43:27.524Z,81.63
2022-12-18T19:48:29.413Z,81.07
2022-12-18T19:53:31.054Z,81.75
2022-12-18T19:58:32.736Z,80.98
2022-12-18T20:03:34.678Z,80.78
2022-12-18T20:08:36.945Z,80.72
2022-12-18T20:13:39.107Z,81.06
2022-12-18T20:18:41.052Z,80.60
2022-12-18T20:23:43.970Z,80.92
2022-12-18T20:28:45.931Z,80.40
2022-12-18T20:33:49.953Z,80.34
2022-12-18T20:38:59.330Z,79.98
2022-12-18T20:44:03.531Z,80.62
2022-12-18T20:49:05.301Z,79.97
2022-12-18T20:54:11.509Z,80.18
2022-12-18T20:59:13.579Z,80.05
2022-12-18T21:04:15.580Z,80.06
2022-12-18T21:09:20.453Z,79.37
2022-12-18T21:14:24.896Z,79.10
2022-12-18T21:19:27.287Z,79.54
2022-12-18T21:24:32.768Z,79.54
2022-12-18T21:29:35.089Z,79.09
2022-12-18T21:34:37.362Z,79.15
2022-12-18T21:39:39.747Z,78.52
2022-12-18T21:44:41.828Z,79.04
2022-12-18T21:49:44.271Z,79.06
2022-12-18T21:54:48.809Z,79.10
2022-12-18T21:59:54.489Z,79.32
2022-12-18T22:04:56.180Z,78.53
2022-12-18T22:10:01.280Z,79.21
2022-12-18T22:15:05.141Z,79.40
2022-12-18T22:20:12.641Z,78.94
2022-12-18T22:25:14.896Z,78.91
2022-12-18T22:30:16.559Z,79.46
2022-12-18T22:35:18.096Z,78.95
2022-12-18T22:40:24.608Z,79.33
2022-12-18T22:45:27.902Z,79.76
2022-12-18T22:50:29.817Z,79.30
2022-12-18T22:55:31.519Z,79.35
2022-12-18T23:00:33.114Z,79.40
2022-12-18T23:05:34.846Z,78.79
2022-12-18T23:10:39.820Z,79.45
2022-12-18T23:15:45.715Z,78.80
2022-12-18T23:20:48.332Z,79.35
2022-12-18T23:25:50.852Z,79.11
2022-12-18T23:30:52.677Z,78.92
2022-12-18T23:36:01.354Z,79.71
2022-12-18T23:41:12.865Z,79.24
2022-12-18T23:46:23.799Z,78.84
2022-12-18T23:51:26.123Z,79.64
2022-12-18T23:56:29.806Z,79.18
